Time;durP1;ratioP1;P1;durP2;ratioP2;P2;SDS_P1;SDS_P2;PMS_P1;PMS_P2;Temp;Humidity;BMP_temperature;BMP_pressure;BME280_temperature;BME280_humidity;BME280_pressure;Samples;Min_cycle;Max_cycle;Signal;HPM_P1;HPM_P2
2021/12/23 00:00:47;;;;;;;13.98;5.25;;;;;;;10.44;100.00;99479.44;5023747;28;20079;-84
2021/12/23 00:03:13;;;;;;;11.95;4.45;;;;;;;10.49;100.00;99491.22;5023784;28;20037;-84
2021/12/23 00:05:38;;;;;;;10.95;4.03;;;;;;;10.49;100.00;99499.28;5023045;28;20025;-83
2021/12/23 00:08:04;;;;;;;9.65;4.07;;;;;;;10.48;100.00;99494.13;5021150;28;20439;-83
2021/12/23 00:10:30;;;;;;;10.73;3.75;;;;;;;10.48;100.00;99503.00;5013094;28;20120;-84
2021/12/23 00:12:56;;;;;;;10.40;3.78;;;;;;;10.49;100.00;99498.47;5011903;28;20447;-84
2021/12/23 00:16:00;;;;;;;17.70;4.30;;;;;;;10.45;100.00;99491.81;4992985;28;21011;-84
2021/12/23 00:23:50;;;;;;;15.48;5.30;;;;;;;10.44;100.00;99469.50;5014184;28;20040;-84
2021/12/23 00:26:16;;;;;;;19.20;5.35;;;;;;;10.44;100.00;99463.31;5026114;28;20387;-82
2021/12/23 00:28:41;;;;;;;10.52;4.10;;;;;;;10.43;100.00;99462.50;5009929;28;20041;-83
2021/12/23 00:31:07;;;;;;;14.73;5.00;;;;;;;10.38;100.00;99439.97;5025162;28;20044;-82
2021/12/23 00:33:35;;;;;;;12.85;4.22;;;;;;;10.41;100.00;99442.22;4994227;28;21440;-83
2021/12/23 00:36:03;;;;;;;11.73;3.05;;;;;;;10.39;100.00;99445.13;5021029;28;20468;-85
2021/12/23 00:38:33;;;;;;;15.60;4.30;;;;;;;10.39;100.00;99441.59;5027471;28;20458;-84
2021/12/23 00:41:01;;;;;;;6.60;2.70;;;;;;;10.38;100.00;99437.28;5023525;28;20096;-85
2021/12/23 00:43:27;;;;;;;8.43;3.10;;;;;;;10.42;100.00;99435.81;5021999;28;20124;-85
2021/12/23 00:45:53;;;;;;;19.60;4.93;;;;;;;10.40;100.00;99421.75;4994752;28;20041;-84
2021/12/23 00:48:18;;;;;;;19.08;6.60;;;;;;;10.39;100.00;99418.25;4995588;28;20125;-84
2021/12/23 00:50:46;;;;;;;35.17;9.88;;;;;;;10.39;100.00;99420.09;5031018;28;20063;-85
2021/12/23 00:53:16;;;;;;;15.25;5.40;;;;;;;10.40;100.00;99416.38;5026739;28;20104;-83
2021/12/23 00:55:42;;;;;;;17.67;7.07;;;;;;;10.37;100.00;99404.19;5024519;28;20037;-84
2021/12/23 00:58:07;;;;;;;14.40;6.75;;;;;;;10.29;100.00;99390.97;5025535;28;20475;-85
2021/12/23 01:00:33;;;;;;;9.48;3.83;;;;;;;10.38;100.00;99399.66;5032060;28;20038;-85
2021/12/23 01:03:00;;;;;;;8.55;3.45;;;;;;;10.45;100.00;99416.59;5028887;28;20479;-83
2021/12/23 01:05:26;;;;;;;9.50;3.60;;;;;;;10.47;100.00;99409.97;5011649;28;20026;-85
2021/12/23 01:07:52;;;;;;;10.20;3.25;;;;;;;10.49;100.00;99407.91;5014601;28;20034;-85
2021/12/23 01:10:20;;;;;;;18.05;5.00;;;;;;;10.47;100.00;99404.59;5028601;28;20334;-85
2021/12/23 01:12:53;;;;;;;14.25;3.92;;;;;;;10.51;100.00;99405.03;5011790;28;20041;-83
2021/12/23 01:18:07;;;;;;;7.18;3.90;;;;;;;10.49;100.00;99388.28;5030361;28;20061;-85
2021/12/23 01:20:36;;;;;;;16.52;3.95;;;;;;;10.49;100.00;99381.03;4996305;28;20034;-84
2021/12/23 01:23:09;;;;;;;15.55;5.18;;;;;;;10.46;100.00;99364.50;5009445;28;20030;-84
2021/12/23 01:25:35;;;;;;;;;;;;;;;10.54;100.00;99359.72;5022772;28;20147;-83
2021/12/23 01:28:02;;;;;;;15.30;4.47;;;;;;;10.52;100.00;99360.97;5037906;28;19913;-84
2021/12/23 01:30:28;;;;;;;8.20;2.35;;;;;;;10.54;100.00;99345.47;5029261;28;20041;-84
2021/12/23 01:32:56;;;;;;;7.75;2.83;;;;;;;10.52;100.00;99342.16;5030050;28;20030;-84
2021/12/23 01:35:23;;;;;;;6.40;2.75;;;;;;;10.52;100.00;99340.28;5024478;28;20432;-86
2021/12/23 01:37:48;;;;;;;13.23;3.78;;;;;;;10.52;100.00;99339.47;5011162;28;20056;-85
2021/12/23 01:40:16;;;;;;;29.85;4.25;;;;;;;10.54;100.00;99334.72;5011147;28;20037;-85
2021/12/23 01:42:43;;;;;;;9.65;3.28;;;;;;;10.52;100.00;99324.16;5025786;28;20107;-85
2021/12/23 01:45:11;;;;;;;8.85;2.88;;;;;;;10.41;100.00;99302.50;4992414;28;20476;-85
2021/12/23 01:47:37;;;;;;;17.90;3.63;;;;;;;10.59;100.00;99326.84;5012320;28;20371;-85
2021/12/23 01:50:04;;;;;;;21.90;4.43;;;;;;;10.59;100.00;99320.66;5027676;28;20021;-85
2021/12/23 01:52:29;;;;;;;19.35;4.28;;;;;;;10.60;100.00;99320.44;5009835;28;20033;-85
2021/12/23 01:54:55;;;;;;;23.38;4.93;;;;;;;10.59;100.00;99305.34;5024573;28;20040;-85
2021/12/23 01:57:20;;;;;;;25.17;3.88;;;;;;;10.59;100.00;99299.16;5027863;28;20033;-84
2021/12/23 01:59:46;;;;;;;16.40;4.15;;;;;;;10.63;100.00;99301.19;5008330;28;20059;-85
2021/12/23 02:02:12;;;;;;;19.67;3.55;;;;;;;10.65;100.00;99295.63;4993020;28;20133;-85
2021/12/23 02:04:37;;;;;;;15.48;3.95;;;;;;;10.63;100.00;99295.81;4991354;28;20033;-83
2021/12/23 02:07:03;;;;;;;19.08;3.92;;;;;;;10.63;100.00;99295.00;5008451;28;20033;-83
2021/12/23 02:09:29;;;;;;;8.48;2.15;;;;;;;10.67;100.00;99304.28;5017801;28;20026;-84
2021/12/23 02:11:55;;;;;;;20.80;4.35;;;;;;;10.63;100.00;99295.00;4996597;28;20479;-85
2021/12/23 02:14:29;;;;;;;15.30;4.00;;;;;;;10.61;100.00;99280.94;5024708;28;20022;-83
2021/12/23 02:16:55;;;;;;;9.80;2.53;;;;;;;10.59;100.00;99269.59;5010622;28;20043;-85
2021/12/23 02:19:21;;;;;;;17.33;4.82;;;;;;;10.60;100.00;99268.53;5025907;28;20485;-84
2021/12/23 02:21:47;;;;;;;18.10;3.58;;;;;;;10.61;100.00;99264.81;5026704;28;20498;-84
2021/12/23 02:24:14;;;;;;;28.27;4.75;;;;;;;10.65;100.00;99269.56;5028074;28;20471;-83
2021/12/23 02:26:40;;;;;;;19.52;4.25;;;;;;;10.61;100.00;99256.75;5011512;28;20064;-83
2021/12/23 02:29:06;;;;;;;18.77;4.68;;;;;;;10.62;100.00;99255.72;4991687;28;20386;-85
2021/12/23 02:31:32;;;;;;;12.55;2.97;;;;;;;10.62;100.00;99248.47;5010452;28;20049;-84
2021/12/23 02:33:58;;;;;;;8.60;2.20;;;;;;;10.65;100.00;99244.53;5024852;28;20506;-84
2021/12/23 02:36:23;;;;;;;8.48;2.95;;;;;;;10.69;100.00;99246.59;5025527;28;20057;-84
2021/12/23 02:38:49;;;;;;;19.33;4.07;;;;;;;10.66;100.00;99246.19;5027983;28;20043;-85
2021/12/23 02:41:15;;;;;;;9.55;3.22;;;;;;;10.72;100.00;99243.47;4983043;28;1259213;-85
2021/12/23 02:43:41;;;;;;;12.20;3.05;;;;;;;10.74;100.00;99235.19;5009529;28;20407;-86
2021/12/23 02:46:06;;;;;;;9.02;2.45;;;;;;;10.76;100.00;99230.41;5025930;28;20395;-84
2021/12/23 02:48:38;;;;;;;8.85;3.15;;;;;;;10.80;100.00;99237.03;5008164;28;20033;-85
2021/12/23 02:51:08;;;;;;;8.25;1.85;;;;;;;10.82;100.00;99234.94;5027651;28;20071;-86
2021/12/23 02:53:34;;;;;;;7.22;1.60;;;;;;;10.81;100.00;99235.97;5027653;28;20080;-85
2021/12/23 02:56:03;;;;;;;9.18;1.92;;;;;;;10.76;100.00;99211.59;5011704;28;20096;-84
2021/12/23 02:58:29;;;;;;;10.23;2.15;;;;;;;10.76;100.00;99219.66;5026914;28;20025;-85
2021/12/23 03:00:56;;;;;;;5.28;1.48;;;;;;;10.73;100.00;99220.09;4991571;28;20084;-84
2021/12/23 03:03:22;;;;;;;6.43;1.92;;;;;;;10.70;100.00;99228.59;4993499;28;20095;-85
2021/12/23 03:05:53;;;;;;;13.05;2.20;;;;;;;10.66;100.00;99213.91;4998830;28;20037;-84
2021/12/23 03:08:39;;;;;;;8.80;2.20;;;;;;;10.64;100.00;99219.53;5043841;28;20163;-84
2021/12/23 03:11:07;;;;;;;12.48;3.15;;;;;;;10.59;100.00;99208.59;4989403;28;20053;-83
2021/12/23 03:13:33;;;;;;;4.05;1.73;;;;;;;10.59;100.00;99207.78;5005221;28;20049;-85
2021/12/23 03:15:59;;;;;;;7.60;1.23;;;;;;;10.59;100.00;99203.22;5028784;28;20500;-83
2021/12/23 03:18:25;;;;;;;4.78;1.40;;;;;;;10.62;100.00;99207.34;5029731;28;20033;-85
2021/12/23 03:20:50;;;;;;;4.97;1.77;;;;;;;10.55;100.00;99192.06;5025861;28;20131;-83
2021/12/23 03:23:16;;;;;;;5.65;1.80;;;;;;;10.59;100.00;99195.16;5028012;28;20475;-84
2021/12/23 03:25:42;;;;;;;5.50;1.60;;;;;;;10.57;100.00;99189.97;5010237;28;20116;-83
2021/12/23 03:28:07;;;;;;;6.55;1.42;;;;;;;10.62;100.00;99202.78;5028552;28;20056;-84
2021/12/23 03:30:33;;;;;;;2.95;1.30;;;;;;;10.61;100.00;99197.59;5023742;28;20128;-84
2021/12/23 03:32:59;;;;;;;1.38;0.98;;;;;;;10.56;100.00;99185.66;5026059;28;20045;-81
2021/12/23 03:35:25;;;;;;;4.45;1.27;;;;;;;10.63;100.00;99195.53;5027630;28;20029;-84
2021/12/23 03:37:51;;;;;;;4.22;1.40;;;;;;;10.61;100.00;99186.84;5010610;28;20021;-83
2021/12/23 03:40:16;;;;;;;4.90;1.42;;;;;;;10.59;100.00;99180.91;5009323;28;20376;-85
2021/12/23 03:42:42;;;;;;;11.95;2.00;;;;;;;10.59;100.00;99180.91;5010731;28;20035;-82
2021/12/23 03:45:08;;;;;;;4.10;1.67;;;;;;;10.60;100.00;99190.59;5024743;28;20068;-84
2021/12/23 03:47:35;;;;;;;5.90;2.00;;;;;;;10.64;100.00;99173.84;4993012;28;20096;-85
2021/12/23 03:50:01;;;;;;;5.65;1.30;;;;;;;10.60;100.00;99171.78;5006229;28;20029;-84
2021/12/23 03:52:27;;;;;;;5.10;1.40;;;;;;;10.66;100.00;99171.72;5006770;28;20475;-84
2021/12/23 03:54:52;;;;;;;3.67;1.45;;;;;;;10.69;100.00;99182.06;5007906;28;20354;-84
2021/12/23 03:57:18;;;;;;;4.28;1.30;;;;;;;10.70;100.00;99180.22;5024219;28;20044;-84
2021/12/23 03:59:44;;;;;;;4.25;1.27;;;;;;;10.68;100.00;99172.34;5010113;28;20083;-84
2021/12/23 04:02:10;;;;;;;2.70;1.10;;;;;;;10.67;100.00;99184.16;5023318;28;20455;-84
2021/12/23 04:04:35;;;;;;;2.15;1.10;;;;;;;10.66;100.00;99166.34;4990961;28;21003;-83
2021/12/23 04:07:01;;;;;;;5.40;1.05;;;;;;;10.65;100.00;99163.91;5020333;28;20382;-84
2021/12/23 04:09:27;;;;;;;2.85;0.93;;;;;;;10.65;100.00;99158.53;5025915;28;20060;-84
2021/12/23 04:11:53;;;;;;;3.80;1.50;;;;;;;10.55;100.00;99143.69;5027336;28;20054;-84
2021/12/23 04:14:19;;;;;;;2.80;1.33;;;;;;;10.56;100.00;99134.59;4995969;28;20137;-82
2021/12/23 04:16:44;;;;;;;3.20;1.10;;;;;;;10.63;100.00;99139.91;5003542;28;20454;-83
2021/12/23 04:19:11;;;;;;;4.70;1.50;;;;;;;10.59;100.00;99138.72;5025172;28;20374;-84
2021/12/23 04:21:38;;;;;;;5.63;1.67;;;;;;;10.56;100.00;99139.97;5006235;28;20033;-85
2021/12/23 04:24:04;;;;;;;3.35;1.05;;;;;;;10.53;100.00;99121.59;5011190;28;20038;-85
2021/12/23 04:26:30;;;;;;;8.50;2.10;;;;;;;10.60;100.00;99123.41;5011038;28;20049;-83
2021/12/23 04:28:55;;;;;;;5.75;2.38;;;;;;;10.60;100.00;99120.72;5012027;28;20029;-85
2021/12/23 04:31:23;;;;;;;4.75;1.70;;;;;;;10.57;100.00;99117.41;5022336;28;20044;-84
2021/12/23 04:33:50;;;;;;;3.25;1.17;;;;;;;10.62;100.00;99105.22;5009779;28;20044;-83
2021/12/23 04:36:16;;;;;;;4.30;1.55;;;;;;;10.61;100.00;99100.84;4993372;28;20460;-85
2021/12/23 04:38:43;;;;;;;1.83;0.98;;;;;;;10.59;100.00;99093.03;5008994;28;20048;-83
2021/12/23 04:41:10;;;;;;;3.67;1.17;;;;;;;10.62;100.00;99089.06;4992746;28;20045;-85
2021/12/23 04:43:36;;;;;;;3.13;1.20;;;;;;;10.53;100.00;99070.53;5006647;28;20053;-85
2021/12/23 04:46:02;;;;;;;1.83;1.00;;;;;;;10.63;100.00;99083.47;5007702;28;20271;-84
2021/12/23 04:48:28;;;;;;;0.98;0.90;;;;;;;10.64;100.00;99073.53;4993731;28;20041;-84
2021/12/23 04:50:53;;;;;;;5.20;2.22;;;;;;;10.62;100.00;99071.09;5024884;28;20029;-84
2021/12/23 04:53:19;;;;;;;2.55;1.00;;;;;;;10.59;100.00;99055.41;5024990;28;20557;-85
2021/12/23 04:55:45;;;;;;;3.05;1.05;;;;;;;10.68;100.00;99062.13;5024503;28;20449;-85
2021/12/23 04:58:11;;;;;;;1.75;0.90;;;;;;;10.70;100.00;99059.25;5025314;28;20045;-84
2021/12/23 05:00:36;;;;;;;0.77;0.70;;;;;;;10.75;100.00;99056.72;4994184;28;20037;-84
2021/12/23 05:03:02;;;;;;;2.67;0.90;;;;;;;10.77;100.00;99060.03;4991067;28;20033;-83
2021/12/23 05:05:28;;;;;;;2.03;0.80;;;;;;;10.74;100.00;99047.84;5002103;28;20427;-84
2021/12/23 05:07:54;;;;;;;1.27;0.90;;;;;;;10.79;100.00;99044.47;4990095;28;20033;-84
2021/12/23 05:10:20;;;;;;;3.40;1.05;;;;;;;10.71;100.00;99037.50;5010442;28;20132;-83
2021/12/23 05:12:47;;;;;;;2.95;1.15;;;;;;;10.77;100.00;99035.84;5049504;28;20033;-84
2021/12/23 05:15:15;;;;;;;2.58;1.08;;;;;;;10.81;100.00;99031.66;5016857;28;20489;-85
2021/12/23 05:17:42;;;;;;;4.10;0.80;;;;;;;10.83;100.00;99039.50;5003162;28;20048;-82
2021/12/23 05:20:09;;;;;;;2.95;0.82;;;;;;;10.84;100.00;99047.34;5023137;28;20034;-85
2021/12/23 05:22:35;;;;;;;2.60;0.88;;;;;;;10.87;100.00;99044.19;5007128;28;20022;-83
2021/12/23 05:25:02;;;;;;;3.58;1.20;;;;;;;10.69;100.00;99025.31;5017595;28;20048;-86
2021/12/23 05:27:28;;;;;;;4.47;1.77;;;;;;;10.88;100.00;99062.00;5023371;28;20084;-82
2021/12/23 05:29:53;;;;;;;2.15;0.95;;;;;;;10.92;100.00;99063.19;5025970;28;20387;-84
2021/12/23 05:32:19;;;;;;;3.80;1.38;;;;;;;10.92;100.00;99062.38;4991051;28;20068;-83
2021/12/23 05:34:45;;;;;;;2.03;1.02;;;;;;;10.99;100.00;99061.28;5010950;28;20037;-84
2021/12/23 05:37:10;;;;;;;11.13;2.58;;;;;;;11.04;100.00;99038.28;5025480;28;20029;-84
2021/12/23 05:39:36;;;;;;;4.70;1.38;;;;;;;11.02;100.00;99045.75;4995743;28;20041;-85
2021/12/23 05:42:02;;;;;;;4.70;1.38;;;;;;;11.06;100.00;99047.78;5026458;28;20208;-84
2021/12/23 05:44:28;;;;;;;1.85;0.98;;;;;;;11.09;100.00;99062.66;5008656;28;20037;-83
2021/12/23 05:46:53;;;;;;;4.40;1.58;;;;;;;11.10;100.00;99081.25;4996801;28;20060;-84
2021/12/23 05:49:19;;;;;;;5.55;1.30;;;;;;;11.10;100.00;99092.00;4995255;28;20042;-82
2021/12/23 05:51:45;;;;;;;3.50;1.10;;;;;;;11.11;100.00;99074.00;5011252;28;20042;-85
2021/12/23 05:54:10;;;;;;;4.72;1.45;;;;;;;11.10;100.00;99059.72;5030149;28;20529;-85
2021/12/23 05:56:36;;;;;;;4.20;1.52;;;;;;;11.07;100.00;99059.38;4998152;28;20040;-84
2021/12/23 05:59:02;;;;;;;3.72;1.20;;;;;;;11.08;100.00;99042.16;5009172;28;20072;-85
2021/12/23 06:01:27;;;;;;;10.20;1.63;;;;;;;11.11;100.00;99045.22;5012382;28;20033;-85
2021/12/23 06:03:53;;;;;;;6.53;1.90;;;;;;;11.14;100.00;99041.28;5013780;28;20034;-83
2021/12/23 06:06:19;;;;;;;6.55;1.40;;;;;;;11.13;100.00;99043.16;4996699;28;20046;-85
2021/12/23 06:08:44;;;;;;;6.20;1.80;;;;;;;11.09;100.00;99044.66;5029629;28;20033;-86
2021/12/23 06:11:10;;;;;;;10.20;2.92;;;;;;;11.14;100.00;99043.97;5026324;28;20031;-84
2021/12/23 06:13:36;;;;;;;11.88;4.03;;;;;;;11.02;100.00;99027.75;5029717;28;20029;-86
2021/12/23 06:16:01;;;;;;;13.27;4.45;;;;;;;11.11;100.00;99047.09;5028877;28;20464;-84
2021/12/23 06:18:27;;;;;;;19.15;7.00;;;;;;;11.06;100.00;99052.31;5026850;28;20493;-85
2021/12/23 06:20:53;;;;;;;7.65;2.72;;;;;;;11.07;100.00;99043.22;5025879;28;20033;-85
2021/12/23 06:23:18;;;;;;;38.05;12.13;;;;;;;11.21;100.00;99056.31;5013338;28;20083;-84
2021/12/23 06:25:44;;;;;;;6.53;3.22;;;;;;;11.13;100.00;99047.72;5036108;28;20033;-84
2021/12/23 06:28:10;;;;;;;7.25;1.83;;;;;;;11.15;100.00;99061.78;5009602;28;22337;-83
2021/12/23 06:30:35;;;;;;;6.75;3.92;;;;;;;11.12;100.00;99057.66;4996203;28;20056;-85
2021/12/23 06:33:01;;;;;;;5.25;1.40;;;;;;;11.15;100.00;99083.28;5027803;28;20083;-85
2021/12/23 06:35:28;;;;;;;3.00;1.30;;;;;;;11.15;100.00;99105.63;5028397;28;20056;-84
2021/12/23 06:37:55;;;;;;;10.20;1.63;;;;;;;11.14;100.00;99117.44;5027129;28;20065;-84
2021/12/23 06:40:21;;;;;;;9.30;1.73;;;;;;;11.12;100.00;99116.84;5042516;28;20102;-85
2021/12/23 06:42:48;;;;;;;7.90;1.10;;;;;;;10.85;100.00;99077.72;5029179;28;20125;-83
2021/12/23 06:45:15;;;;;;;3.05;1.10;;;;;;;11.10;100.00;99113.53;5023180;28;20029;-84
2021/12/23 06:47:41;;;;;;;11.00;1.55;;;;;;;11.08;100.00;99118.28;5024843;28;20037;-84
2021/12/23 06:50:09;;;;;;;6.40;2.00;;;;;;;11.04;100.00;99135.13;4992966;28;20048;-85
2021/12/23 06:52:36;;;;;;;3.35;1.20;;;;;;;10.99;100.00;99144.66;5028998;28;20383;-85
2021/12/23 06:55:02;;;;;;;3.92;1.55;;;;;;;10.88;100.00;99156.13;5010146;28;20057;-83
2021/12/23 06:57:28;;;;;;;3.33;1.10;;;;;;;10.74;100.00;99168.81;5029464;28;20025;-86
2021/12/23 06:59:53;;;;;;;3.10;0.90;;;;;;;10.62;100.00;99188.53;5023313;28;20037;-82
2021/12/23 07:02:19;;;;;;;3.10;1.00;;;;;;;10.45;100.00;99196.22;5024943;28;20559;-82
2021/12/23 07:04:45;;;;;;;2.95;0.90;;;;;;;10.26;100.00;99176.44;4994046;28;20049;-83
2021/12/23 07:07:19;;;;;;;3.33;0.80;;;;;;;10.24;100.00;99210.75;5029278;28;20394;-84
2021/12/23 07:09:45;;;;;;;0.52;0.47;;;;;;;10.19;100.00;99234.72;5012678;28;20095;-85
2021/12/23 07:12:12;;;;;;;0.50;0.50;;;;;;;10.10;100.00;99226.91;4994587;28;20033;-83
2021/12/23 07:14:38;;;;;;;7.65;1.65;;;;;;;10.00;100.00;99226.53;4994632;28;20073;-83
2021/12/23 07:17:06;;;;;;;2.63;0.70;;;;;;;9.99;100.00;99230.22;4991425;28;20034;-83
2021/12/23 07:19:32;;;;;;;2.22;0.60;;;;;;;9.90;100.00;99226.13;5017562;28;20040;-85
2021/12/23 07:21:58;;;;;;;2.08;1.13;;;;;;;9.87;100.00;99239.94;5024851;28;20180;-84
2021/12/23 07:24:23;;;;;;;0.55;0.50;;;;;;;9.79;100.00;99235.66;5006948;28;20029;-84
2021/12/23 07:26:49;;;;;;;0.60;0.60;;;;;;;9.77;100.00;99231.53;5005168;28;20038;-83
2021/12/23 07:29:15;;;;;;;3.42;1.88;;;;;;;9.63;100.00;99236.03;5020093;28;20056;-84
2021/12/23 07:31:41;;;;;;;5.57;0.80;;;;;;;9.62;100.00;99256.69;4992056;28;20045;-83
2021/12/23 07:34:07;;;;;;;3.22;0.90;;;;;;;9.60;100.00;99253.38;5027781;28;20044;-84
2021/12/23 07:36:33;;;;;;;3.38;0.85;;;;;;;9.55;100.00;99255.88;4995194;28;20033;-84
2021/12/23 07:39:01;;;;;;;5.47;1.05;;;;;;;9.48;100.00;99276.50;5009511;28;20072;-83
2021/12/23 07:41:27;;;;;;;7.55;1.08;;;;;;;9.45;100.00;99280.44;5022389;28;20116;-83
2021/12/23 07:44:03;;;;;;;7.90;1.95;;;;;;;9.40;100.00;99277.53;5013040;28;20049;-83
2021/12/23 07:46:31;;;;;;;3.95;1.00;;;;;;;9.35;100.00;99285.38;5012053;28;20045;-84
2021/12/23 07:48:57;;;;;;;9.43;1.52;;;;;;;9.31;100.00;99291.34;5010536;28;20660;-84
2021/12/23 07:51:24;;;;;;;10.57;1.17;;;;;;;9.19;100.00;99288.44;5020625;28;20041;-83
2021/12/23 07:53:50;;;;;;;8.48;1.50;;;;;;;8.93;100.00;99268.56;5023682;28;20135;-83
2021/12/23 07:56:16;;;;;;;6.15;0.90;;;;;;;8.89;100.00;99287.91;5008741;28;20551;-83
2021/12/23 07:58:42;;;;;;;7.80;1.20;;;;;;;8.74;100.00;99285.41;5023844;28;20693;-83
2021/12/23 08:01:08;;;;;;;8.32;1.02;;;;;;;8.82;100.00;99308.53;5035951;28;20041;-83
2021/12/23 08:03:34;;;;;;;3.78;0.95;;;;;;;8.87;100.00;99312.25;4993081;28;20383;-84
2021/12/23 08:05:59;;;;;;;12.20;1.33;;;;;;;8.90;100.00;99308.34;5016337;28;20033;-82
2021/12/23 08:08:25;;;;;;;8.00;1.83;;;;;;;8.93;100.00;99302.59;5020892;28;20032;-83
2021/12/23 08:10:51;;;;;;;9.20;1.27;;;;;;;8.90;100.00;99303.00;4995167;28;20151;-84
2021/12/23 08:13:17;;;;;;;6.38;1.90;;;;;;;8.91;100.00;99308.13;5019620;28;20459;-83
2021/12/23 08:15:43;;;;;;;9.07;1.25;;;;;;;8.88;100.00;99313.91;5019262;28;20557;-83
2021/12/23 08:18:09;;;;;;;10.25;1.30;;;;;;;8.89;100.00;99317.41;5016991;28;20132;-84
2021/12/23 08:20:35;;;;;;;14.32;1.92;;;;;;;8.90;100.00;99317.22;5005767;28;20172;-83
2021/12/23 08:23:01;;;;;;;2.55;0.90;;;;;;;8.89;100.00;99325.44;5004287;28;20042;-83
2021/12/23 08:25:27;;;;;;;11.35;2.25;;;;;;;8.88;100.00;99334.53;5023692;28;20060;-83
2021/12/23 08:27:53;;;;;;;11.25;1.80;;;;;;;8.90;100.00;99343.19;5001746;28;20037;-83
2021/12/23 08:30:20;;;;;;;11.55;2.22;;;;;;;8.75;100.00;99329.91;5002016;28;20384;-81
2021/12/23 08:32:47;;;;;;;12.13;1.98;;;;;;;8.72;100.00;99333.00;5016805;28;20048;-84
2021/12/23 08:35:14;;;;;;;10.45;1.60;;;;;;;8.78;100.00;99349.09;5025086;28;20078;-83
2021/12/23 08:37:40;;;;;;;18.88;2.20;;;;;;;8.79;100.00;99353.44;5009925;28;20061;-84
2021/12/23 08:40:08;;;;;;;12.20;2.40;;;;;;;8.76;100.00;99364.56;5025149;28;20022;-83
2021/12/23 08:42:34;;;;;;;12.07;1.98;;;;;;;8.73;100.00;99364.97;5023352;28;20483;-82
2021/12/23 08:45:03;;;;;;;11.75;2.35;;;;;;;8.68;100.00;99372.78;5025876;28;20183;-83
2021/12/23 08:47:29;;;;;;;10.88;2.00;;;;;;;8.68;100.00;99378.13;4996627;28;20079;-84
2021/12/23 08:49:54;;;;;;;9.65;1.90;;;;;;;8.62;100.00;99376.22;5025208;28;20062;-84
2021/12/23 08:52:20;;;;;;;17.05;2.58;;;;;;;8.62;100.00;99383.44;5024363;28;20029;-83
2021/12/23 08:54:48;;;;;;;11.88;2.17;;;;;;;8.52;100.00;99373.06;5023037;28;20080;-83
2021/12/23 08:57:15;;;;;;;7.28;2.10;;;;;;;8.51;100.00;99377.59;5008529;28;20132;-83
2021/12/23 08:59:40;;;;;;;8.32;1.90;;;;;;;8.57;100.00;99397.41;4992500;28;20037;-82
2021/12/23 09:02:09;;;;;;;15.40;2.15;;;;;;;8.56;100.00;99401.97;5025589;28;20033;-85
2021/12/23 09:04:35;;;;;;;11.25;2.92;;;;;;;8.53;100.00;99406.88;5020265;28;20033;-83
2021/12/23 09:07:02;;;;;;;14.73;3.40;;;;;;;8.46;100.00;99389.94;4990127;28;20088;-83
2021/12/23 09:09:31;;;;;;;9.02;1.90;;;;;;;8.59;100.00;99406.91;5010974;28;20053;-83
2021/12/23 09:11:57;;;;;;;8.93;2.40;;;;;;;8.60;100.00;99410.44;5008601;28;20743;-85
2021/12/23 09:14:22;;;;;;;11.52;3.17;;;;;;;8.55;100.00;99412.88;5025160;28;20034;-84
2021/12/23 09:16:48;;;;;;;7.53;3.47;;;;;;;8.50;100.00;99413.47;5014479;28;20044;-85
2021/12/23 09:19:14;;;;;;;10.27;2.85;;;;;;;8.41;100.00;99411.94;5013368;28;20073;-84
2021/12/23 09:21:40;;;;;;;16.08;4.07;;;;;;;8.36;100.00;99411.66;4995149;28;20063;-84
2021/12/23 09:24:06;;;;;;;11.25;4.60;;;;;;;8.26;100.00;99403.97;5023134;28;20484;-84
2021/12/23 09:26:37;;;;;;;14.65;6.93;;;;;;;8.28;100.00;99417.16;4995237;28;20041;-84
2021/12/23 09:29:12;;;;;;;15.30;4.88;;;;;;;8.37;100.00;99424.88;4998913;28;20395;-84
2021/12/23 09:34:22;;;;;;;10.20;3.05;;;;;;;8.46;100.00;99432.78;5010319;28;20034;-83
2021/12/23 09:36:48;;;;;;;10.80;2.45;;;;;;;8.33;100.00;99442.34;4992837;28;20115;-85
2021/12/23 09:39:14;;;;;;;10.77;2.35;;;;;;;8.24;100.00;99451.53;5030633;28;20037;-84
2021/12/23 09:41:41;;;;;;;11.50;1.98;;;;;;;8.22;100.00;99445.53;5013106;28;20037;-85
2021/12/23 09:44:08;;;;;;;10.30;2.13;;;;;;;8.32;100.00;99451.41;5014095;28;20033;-86
2021/12/23 09:46:34;;;;;;;5.93;1.27;;;;;;;8.65;100.00;99460.75;5015198;28;20437;-85
2021/12/23 09:49:01;;;;;;;9.75;1.60;;;;;;;9.03;100.00;99448.63;5030020;28;20030;-86
2021/12/23 09:51:29;;;;;;;8.55;2.00;;;;;;;9.43;100.00;99461.41;4996098;28;20122;-85
2021/12/23 09:54:04;;;;;;;7.90;2.50;;;;;;;9.64;100.00;99466.66;5013575;28;20033;-85
2021/12/23 09:56:31;;;;;;;8.70;2.20;;;;;;;9.81;100.00;99474.34;5029494;28;20483;-85
2021/12/23 09:58:58;;;;;;;6.20;1.98;;;;;;;9.98;100.00;99483.69;5011806;28;20486;-85
2021/12/23 10:01:25;;;;;;;6.25;1.60;;;;;;;10.46;100.00;99482.75;5025149;28;20228;-85
2021/12/23 10:03:52;;;;;;;10.50;1.60;;;;;;;10.30;100.00;99490.16;5030002;28;20033;-85
2021/12/23 10:06:17;;;;;;;5.72;1.58;;;;;;;10.50;100.00;99495.53;5014480;28;20057;-85
2021/12/23 10:08:44;;;;;;;3.38;1.55;;;;;;;11.02;100.00;99494.91;5012907;28;20068;-85
2021/12/23 10:31:21;;;;;;;2.40;1.52;;;;;;;14.99;84.56;99506.75;5030850;28;20033;-85
2021/12/23 10:38:43;;;;;;;6.18;1.42;;;;;;;15.47;81.18;99508.34;5009005;28;20039;-86
2021/12/23 10:41:17;;;;;;;2.03;1.40;;;;;;;15.62;80.58;99514.09;4996078;28;20454;-85
2021/12/23 10:43:55;;;;;;;3.85;1.63;;;;;;;15.50;81.83;99469.94;5028890;28;20065;-85
2021/12/23 10:46:30;;;;;;;5.43;1.95;;;;;;;16.15;79.24;99498.63;5012196;28;20075;-85
2021/12/23 10:49:15;;;;;;;10.82;3.55;;;;;;;15.49;80.87;99488.09;5011589;28;20033;-86
2021/12/23 10:52:25;;;;;;;4.70;2.05;;;;;;;14.74;82.99;99505.09;5027127;28;20049;-86
2021/12/23 11:00:20;;;;;;;6.32;1.50;;;;;;;14.39;84.96;99516.63;5036724;28;20038;-86
2021/12/23 11:03:17;;;;;;;12.93;2.10;;;;;;;14.44;86.80;99516.75;5010763;28;20045;-84
2021/12/23 11:05:49;;;;;;;15.50;7.40;;;;;;;14.37;86.12;99490.88;5009065;28;20029;-85
2021/12/23 11:11:04;;;;;;;11.07;4.72;;;;;;;14.44;85.66;99507.81;5016261;28;20060;-85
2021/12/23 11:36:21;;;;;;;10.38;2.30;;;;;;;13.56;90.68;99523.56;5028926;28;20052;-85
2021/12/23 11:39:06;;;;;;;4.72;1.63;;;;;;;14.34;86.13;99508.38;5003652;28;20133;-84
2021/12/23 11:41:36;;;;;;;10.82;2.22;;;;;;;14.15;87.05;99518.44;5012504;28;20072;-85
2021/12/23 11:44:06;;;;;;;2.90;1.40;;;;;;;13.56;88.50;99528.94;5028950;28;20036;-85
2021/12/23 11:46:45;;;;;;;19.88;3.53;;;;;;;13.09;91.82;99522.38;5011449;28;20360;-84
2021/12/23 11:49:13;;;;;;;11.75;2.40;;;;;;;13.57;90.70;99527.06;5029424;28;20041;-85
2021/12/23 11:51:54;;;;;;;12.88;1.90;;;;;;;13.52;90.21;99498.06;5014277;28;20135;-86
2021/12/23 11:54:44;;;;;;;7.65;1.67;;;;;;;13.37;90.98;99513.81;4992494;28;20394;-84
2021/12/23 11:57:15;;;;;;;6.40;2.40;;;;;;;13.49;89.91;99498.50;5025943;28;20467;-85
2021/12/23 11:59:43;;;;;;;11.40;2.22;;;;;;;13.68;89.94;99495.78;5013253;28;20026;-84
2021/12/23 12:02:19;;;;;;;9.35;3.08;;;;;;;12.70;92.41;99494.69;5009643;28;20046;-84
2021/12/23 12:04:46;;;;;;;12.98;2.63;;;;;;;13.50;91.13;99502.84;4990155;28;20048;-85
2021/12/23 12:07:22;;;;;;;4.53;1.75;;;;;;;13.74;88.35;99501.13;4992944;28;20439;-85
2021/12/23 12:09:57;;;;;;;11.00;2.45;;;;;;;12.42;93.65;99505.91;5004723;28;20121;-84
2021/12/23 12:12:23;;;;;;;7.43;1.25;;;;;;;12.13;96.25;99500.09;5009377;28;20084;-85
2021/12/23 12:14:51;;;;;;;7.95;2.17;;;;;;;14.21;89.35;99511.28;4995876;28;20045;-84
2021/12/23 12:17:26;;;;;;;13.88;2.35;;;;;;;15.50;83.19;99502.47;5011198;28;20112;-84
2021/12/23 12:20:20;;;;;;;10.18;2.17;;;;;;;15.76;80.69;99501.94;5026157;28;20376;-84
2021/12/23 12:23:01;;;;;;;3.85;1.55;;;;;;;15.83;80.52;99491.78;5010882;28;20041;-84
2021/12/23 12:25:26;;;;;;;7.70;1.60;;;;;;;15.61;81.27;99502.44;5043973;28;20041;-84
2021/12/23 12:28:12;;;;;;;11.77;1.92;;;;;;;15.79;80.01;99506.88;5019548;28;20056;-84
2021/12/23 12:30:57;;;;;;;13.20;1.80;;;;;;;15.50;81.07;99481.59;5038730;28;20029;-85
2021/12/23 12:33:25;;;;;;;6.43;2.05;;;;;;;15.83;80.07;99501.81;5008552;28;20108;-84